createdAt,value
2024-01-24T00:00:25.531Z,84.45
2024-01-24T00:02:28.269Z,84.57
2024-01-24T00:04:31.059Z,84.38
2024-01-24T00:06:33.896Z,84.61
2024-01-24T00:08:36.630Z,84.74
2024-01-24T00:10:39.382Z,84.61
2024-01-24T00:12:42.127Z,84.51
2024-01-24T00:14:44.876Z,84.52
2024-01-24T00:16:47.598Z,84.58
2024-01-24T00:18:50.482Z,83.91
2024-01-24T00:20:55.315Z,84.06
2024-01-24T00:22:58.139Z,84.32
2024-01-24T00:25:00.863Z,84.25
2024-01-24T00:27:03.680Z,84.55
2024-01-24T00:29:06.414Z,85.31
2024-01-24T00:31:09.546Z,85.01
2024-01-24T00:33:12.403Z,84.95
2024-01-24T00:35:15.299Z,85.48
2024-01-24T00:37:18.104Z,85.11
2024-01-24T00:39:20.856Z,85.04
2024-01-24T00:41:23.693Z,84.68
2024-01-24T00:43:27.216Z,84.06
2024-01-24T00:45:30.044Z,83.48
2024-01-24T00:47:32.996Z,83.23
2024-01-24T00:49:35.833Z,83.76
2024-01-24T00:51:38.902Z,83.98
2024-01-24T00:53:41.699Z,84.32
2024-01-24T00:55:47.163Z,84.68
2024-01-24T00:57:50.062Z,84.33
2024-01-24T00:59:52.825Z,84.67
2024-01-24T01:01:55.622Z,84.42
2024-01-24T01:03:58.484Z,84.25
2024-01-24T01:06:01.270Z,84.29
2024-01-24T01:08:04.317Z,84.51
2024-01-24T01:10:09.608Z,83.87
2024-01-24T01:12:12.408Z,83.31
2024-01-24T01:14:15.172Z,83.56
2024-01-24T01:16:17.908Z,83.69
2024-01-24T01:18:20.662Z,83.65
2024-01-24T01:20:23.394Z,83.96
2024-01-24T01:22:26.190Z,84.42
2024-01-24T01:24:28.961Z,84.10
2024-01-24T01:26:34.020Z,83.72
2024-01-24T01:28:36.770Z,84.02
2024-01-24T01:30:40.154Z,83.99
2024-01-24T01:32:43.268Z,84.12
2024-01-24T01:34:46.130Z,83.96
2024-01-24T01:36:48.959Z,83.44
2024-01-24T01:38:51.780Z,82.88
2024-01-24T01:40:54.541Z,83.30
2024-01-24T01:42:57.846Z,83.55
2024-01-24T01:45:00.617Z,83.96
2024-01-24T01:47:03.907Z,83.87
2024-01-24T01:49:08.334Z,84.56
2024-01-24T01:51:12.601Z,85.01
2024-01-24T01:53:17.141Z,84.66
2024-01-24T01:55:20.078Z,83.49
2024-01-24T01:57:22.958Z,83.33
2024-01-24T01:59:27.069Z,83.37
2024-01-24T02:01:30.039Z,83.84
2024-01-24T02:03:33.221Z,83.55
2024-01-24T02:05:38.902Z,83.74
2024-01-24T02:07:45.308Z,83.83
2024-01-24T02:09:48.300Z,83.33
2024-01-24T02:11:51.158Z,83.67
2024-01-24T02:14:00.678Z,83.39
2024-01-24T02:16:04.776Z,84.02
2024-01-24T02:18:07.675Z,83.97
2024-01-24T02:20:13.575Z,84.31
2024-01-24T02:22:16.351Z,84.08
2024-01-24T02:24:19.174Z,84.10
2024-01-24T02:26:21.961Z,84.53
2024-01-24T02:28:24.984Z,84.74
2024-01-24T02:30:27.784Z,84.75
2024-01-24T02:32:30.578Z,85.35
2024-01-24T02:34:33.542Z,86.86
2024-01-24T02:36:36.501Z,85.61
2024-01-24T02:38:39.245Z,85.96
2024-01-24T02:40:42.145Z,85.21
2024-01-24T02:42:44.936Z,85.05
2024-01-24T02:44:47.831Z,84.88
2024-01-24T02:46:50.588Z,84.51
2024-01-24T02:48:53.474Z,84.15
2024-01-24T02:50:56.310Z,84.26
2024-01-24T02:52:59.165Z,84.38
2024-01-24T02:55:02.078Z,84.55
2024-01-24T02:57:05.997Z,84.71
2024-01-24T02:59:08.789Z,84.92
2024-01-24T03:01:11.706Z,84.94
2024-01-24T03:03:14.549Z,85.10
2024-01-24T03:05:17.359Z,84.70
2024-01-24T03:07:20.131Z,83.43
2024-01-24T03:09:23.468Z,82.51
2024-01-24T03:11:26.519Z,83.03
2024-01-24T03:13:29.326Z,83.77
2024-01-24T03:15:32.182Z,84.30
2024-01-24T03:17:35.258Z,83.99
2024-01-24T03:19:38.114Z,83.79
2024-01-24T03:21:41.763Z,83.63
2024-01-24T03:23:45.172Z,84.15
2024-01-24T03:25:47.923Z,84.59
2024-01-24T03:27:50.718Z,84.82
2024-01-24T03:29:53.610Z,84.50
2024-01-24T03:31:56.336Z,84.58
2024-01-24T03:33:59.207Z,84.77
2024-01-24T03:36:02.009Z,85.10
2024-01-24T03:38:05.566Z,84.93
2024-01-24T03:40:08.937Z,84.46
2024-01-24T03:42:11.687Z,84.93
2024-01-24T03:44:14.471Z,84.94
2024-01-24T03:46:21.384Z,84.26
2024-01-24T03:48:24.387Z,84.10
2024-01-24T03:50:27.176Z,84.48
2024-01-24T03:52:30.293Z,84.86
2024-01-24T03:54:33.099Z,85.38
2024-01-24T03:56:35.875Z,85.47
2024-01-24T03:58:38.807Z,85.19
2024-01-24T04:00:41.629Z,85.40
2024-01-24T04:02:44.446Z,85.30
2024-01-24T04:04:47.217Z,85.04
2024-01-24T04:06:50.208Z,85.32
2024-01-24T04:08:53.060Z,85.60
2024-01-24T04:10:55.974Z,85.51
2024-01-24T04:12:58.750Z,85.46
2024-01-24T04:15:01.622Z,85.33
2024-01-24T04:17:04.373Z,85.03
2024-01-24T04:19:07.928Z,85.37
2024-01-24T04:21:10.700Z,85.39
2024-01-24T04:23:13.493Z,85.17
2024-01-24T04:25:16.403Z,85.30
2024-01-24T04:27:19.457Z,85.07
2024-01-24T04:29:22.209Z,84.82
2024-01-24T04:31:24.949Z,84.83
2024-01-24T04:33:27.769Z,84.86
2024-01-24T04:35:30.664Z,84.90
2024-01-24T04:37:33.407Z,85.07
2024-01-24T04:39:36.165Z,84.89
2024-01-24T04:41:41.294Z,84.74
2024-01-24T04:43:44.288Z,84.78
2024-01-24T04:45:47.163Z,84.91
2024-01-24T04:47:49.972Z,84.63
2024-01-24T04:49:52.843Z,84.77
2024-01-24T04:51:55.696Z,84.84
2024-01-24T04:53:58.462Z,84.97
2024-01-24T04:56:01.237Z,84.91
2024-01-24T04:58:04.500Z,84.85
2024-01-24T05:00:09.274Z,84.68
2024-01-24T05:02:12.018Z,84.46
2024-01-24T05:04:14.857Z,84.62
2024-01-24T05:06:17.745Z,84.56
2024-01-24T05:08:20.524Z,84.29
2024-01-24T05:10:23.277Z,84.84
2024-01-24T05:12:26.073Z,85.01
2024-01-24T05:14:29.515Z,85.14
2024-01-24T05:16:32.284Z,84.77
2024-01-24T05:18:35.143Z,84.82
2024-01-24T05:20:38.411Z,84.91
2024-01-24T05:22:41.184Z,84.83
2024-01-24T05:24:47.429Z,85.01
2024-01-24T05:26:50.197Z,85.40
2024-01-24T05:28:52.969Z,85.06
2024-01-24T05:30:55.817Z,85.21
2024-01-24T05:32:59.234Z,85.62
2024-01-24T05:35:02.225Z,85.60
2024-01-24T05:37:05.112Z,85.64
2024-01-24T05:39:08.818Z,85.97
2024-01-24T05:41:11.780Z,85.54
2024-01-24T05:43:14.559Z,85.82
2024-01-24T05:45:17.315Z,85.34
2024-01-24T05:47:20.060Z,85.88
2024-01-24T05:49:22.907Z,85.64
2024-01-24T05:51:25.764Z,85.97
2024-01-24T05:53:28.863Z,86.27
2024-01-24T05:55:31.672Z,86.30
2024-01-24T05:57:34.429Z,86.13
2024-01-24T05:59:37.328Z,85.69
2024-01-24T06:01:40.273Z,85.37
2024-01-24T06:03:43.208Z,86.24
2024-01-24T06:05:46.240Z,86.28
2024-01-24T06:07:50.933Z,86.49
2024-01-24T06:09:53.828Z,86.65
2024-01-24T06:11:56.662Z,86.67
2024-01-24T06:13:59.509Z,86.75
2024-01-24T06:16:02.999Z,86.50
2024-01-24T06:18:05.973Z,86.24
2024-01-24T06:20:10.420Z,86.90
2024-01-24T06:22:13.210Z,86.37
2024-01-24T06:24:16.285Z,85.90
2024-01-24T06:26:19.109Z,85.62
2024-01-24T06:28:21.850Z,85.14
2024-01-24T06:30:26.745Z,84.72
2024-01-24T06:32:30.929Z,84.61
2024-01-24T06:34:33.763Z,84.33
2024-01-24T06:36:36.707Z,83.84
2024-01-24T06:38:39.472Z,83.56
2024-01-24T06:40:42.366Z,83.14
2024-01-24T06:42:45.128Z,82.96
2024-01-24T06:44:47.868Z,82.87
2024-01-24T06:46:50.645Z,82.02
2024-01-24T06:48:53.777Z,82.04
2024-01-24T06:50:56.676Z,81.78
2024-01-24T06:52:59.822Z,81.85
2024-01-24T06:55:03.077Z,81.57
2024-01-24T06:57:05.820Z,81.78
2024-01-24T06:59:08.599Z,81.24
2024-01-24T07:01:14.793Z,80.81
2024-01-24T07:03:20.368Z,80.96
2024-01-24T07:05:24.996Z,80.91
2024-01-24T07:07:27.804Z,80.56
2024-01-24T07:09:30.710Z,80.43
2024-01-24T07:11:33.605Z,80.87
2024-01-24T07:13:37.829Z,80.65
2024-01-24T07:15:41.000Z,80.16
2024-01-24T07:17:44.159Z,80.41
2024-01-24T07:19:48.367Z,80.02
2024-01-24T07:21:52.296Z,79.91
2024-01-24T07:23:55.602Z,80.09
2024-01-24T07:25:58.704Z,80.00
2024-01-24T07:28:01.479Z,79.72
2024-01-24T07:30:05.727Z,79.58
2024-01-24T07:32:11.166Z,79.83
2024-01-24T07:34:14.010Z,79.32
2024-01-24T07:36:17.056Z,79.22
2024-01-24T07:38:20.054Z,79.34
2024-01-24T07:40:22.789Z,79.03
2024-01-24T07:42:25.535Z,78.93
2024-01-24T07:44:28.319Z,79.00
2024-01-24T07:46:33.931Z,78.89
2024-01-24T07:48:37.541Z,78.87
2024-01-24T07:50:40.518Z,78.61
2024-01-24T07:52:44.754Z,78.71
2024-01-24T07:54:47.670Z,78.87
2024-01-24T07:56:50.473Z,78.44
2024-01-24T07:58:54.414Z,78.55
2024-01-24T08:00:57.392Z,78.22
2024-01-24T08:03:00.406Z,78.69
2024-01-24T08:05:03.882Z,79.09
2024-01-24T08:07:07.010Z,79.02
2024-01-24T08:09:11.240Z,79.15
2024-01-24T08:11:16.442Z,79.47
2024-01-24T08:13:20.233Z,79.48
2024-01-24T08:15:23.030Z,79.95
2024-01-24T08:17:26.597Z,79.95
2024-01-24T08:19:29.646Z,80.32
2024-01-24T08:21:32.890Z,80.71
2024-01-24T08:23:42.878Z,80.16
2024-01-24T08:25:51.946Z,80.44
2024-01-24T08:27:54.885Z,81.47
2024-01-24T08:29:58.369Z,80.82
2024-01-24T08:32:01.345Z,80.34
2024-01-24T08:34:04.309Z,81.15
2024-01-24T08:36:07.140Z,80.25
2024-01-24T08:38:10.974Z,81.01
2024-01-24T08:40:13.783Z,81.50
2024-01-24T08:42:16.649Z,81.93
2024-01-24T08:44:19.564Z,81.74
2024-01-24T08:46:22.360Z,81.48
2024-01-24T08:48:26.292Z,81.23
2024-01-24T08:50:29.197Z,81.76
2024-01-24T08:52:36.165Z,81.92
2024-01-24T08:54:39.567Z,82.44
2024-01-24T08:56:42.614Z,82.04
2024-01-24T08:58:45.781Z,82.32
2024-01-24T09:00:48.731Z,82.21
2024-01-24T09:02:51.832Z,82.34
2024-01-24T09:04:56.366Z,82.19
2024-01-24T09:06:59.301Z,82.08
2024-01-24T09:09:02.258Z,82.03
2024-01-24T09:11:05.591Z,82.43
2024-01-24T09:13:08.556Z,82.21
2024-01-24T09:15:11.439Z,83.05
2024-01-24T09:17:14.981Z,82.92
2024-01-24T09:19:18.192Z,83.00
2024-01-24T09:21:21.129Z,82.26
2024-01-24T09:23:24.006Z,82.67
2024-01-24T09:25:26.936Z,82.31
2024-01-24T09:27:30.241Z,82.17
2024-01-24T09:29:33.048Z,82.32
2024-01-24T09:31:35.885Z,82.17
2024-01-24T09:33:40.191Z,82.09
2024-01-24T09:35:45.316Z,81.95
2024-01-24T09:37:48.166Z,81.29
2024-01-24T09:39:52.282Z,81.45
2024-01-24T09:41:57.089Z,81.33
2024-01-24T09:44:05.106Z,81.23
2024-01-24T09:46:13.589Z,81.18
2024-01-24T09:48:18.156Z,80.97
2024-01-24T09:50:23.289Z,81.63
2024-01-24T09:52:28.064Z,80.67
2024-01-24T09:54:32.739Z,81.23
2024-01-24T09:56:39.753Z,80.73
2024-01-24T09:58:42.584Z,80.83
2024-01-24T10:00:45.772Z,80.21
2024-01-24T10:02:48.982Z,80.15
2024-01-24T10:04:53.479Z,80.14
2024-01-24T10:06:56.986Z,79.90
2024-01-24T10:09:00.552Z,79.71
2024-01-24T10:11:03.436Z,79.44
2024-01-24T10:13:07.833Z,79.21
2024-01-24T10:15:11.475Z,79.34
2024-01-24T10:17:14.961Z,79.29
2024-01-24T10:19:22.568Z,79.64
2024-01-24T10:21:27.236Z,79.71
2024-01-24T10:23:30.710Z,79.37
2024-01-24T10:25:33.543Z,79.14
2024-01-24T10:27:38.731Z,78.95
2024-01-24T10:29:44.196Z,78.79
2024-01-24T10:31:47.451Z,78.76
2024-01-24T10:33:55.273Z,78.66
2024-01-24T10:36:03.038Z,77.88
2024-01-24T10:38:13.828Z,78.43
2024-01-24T10:40:17.721Z,78.16
2024-01-24T10:42:23.825Z,78.41
2024-01-24T10:44:26.856Z,78.20
2024-01-24T10:46:30.258Z,78.19
2024-01-24T10:48:36.410Z,78.09
2024-01-24T10:50:51.649Z,78.07
2024-01-24T10:53:00.202Z,77.85
2024-01-24T10:55:14.761Z,78.12
2024-01-24T10:57:23.495Z,77.89
2024-01-24T10:59:36.597Z,77.26
2024-01-24T11:01:39.463Z,77.19
2024-01-24T11:03:43.912Z,77.36
2024-01-24T11:05:57.878Z,77.29
2024-01-24T11:08:23.682Z,77.15
2024-01-24T11:10:35.393Z,77.56
2024-01-24T11:12:38.334Z,77.45
2024-01-24T11:14:46.683Z,77.43
2024-01-24T11:16:49.506Z,76.97
2024-01-24T11:18:53.063Z,76.54
2024-01-24T11:21:01.094Z,76.93
2024-01-24T11:23:36.486Z,76.74
2024-01-24T11:25:39.554Z,76.05
2024-01-24T11:27:44.893Z,75.91
2024-01-24T11:29:47.780Z,75.87
2024-01-24T11:31:50.694Z,75.83
2024-01-24T11:34:15.554Z,75.84
2024-01-24T11:36:18.628Z,75.42
2024-01-24T11:38:26.675Z,74.93
2024-01-24T11:40:37.474Z,74.82
2024-01-24T11:42:44.585Z,74.86
2024-01-24T11:44:48.484Z,74.71
2024-01-24T11:46:53.113Z,75.13
2024-01-24T11:49:05.557Z,74.54
2024-01-24T11:51:11.858Z,74.96
2024-01-24T11:53:14.611Z,75.04
2024-01-24T11:55:17.416Z,74.49
2024-01-24T11:57:20.467Z,74.72
2024-01-24T11:59:23.315Z,74.66
2024-01-24T12:01:26.323Z,74.37
2024-01-24T12:03:29.235Z,74.77
2024-01-24T12:05:32.058Z,74.47
2024-01-24T12:07:35.070Z,74.63
2024-01-24T12:09:37.952Z,74.54
2024-01-24T12:11:40.732Z,74.73
2024-01-24T12:13:43.743Z,74.33
2024-01-24T12:15:47.398Z,74.29
2024-01-24T12:17:50.481Z,73.95
2024-01-24T12:19:54.423Z,74.40
2024-01-24T12:21:59.529Z,74.13
2024-01-24T12:24:02.751Z,74.12
2024-01-24T12:26:05.864Z,74.72
2024-01-24T12:28:09.382Z,74.86
2024-01-24T12:30:14.308Z,74.59
2024-01-24T12:32:18.610Z,73.97
2024-01-24T12:34:22.690Z,73.31
2024-01-24T12:36:26.100Z,74.29
2024-01-24T12:38:29.038Z,74.61
2024-01-24T12:40:33.027Z,74.32
2024-01-24T12:42:36.476Z,74.60
2024-01-24T12:44:39.535Z,74.08
2024-01-24T12:46:42.400Z,74.28
2024-01-24T12:48:48.643Z,73.60
2024-01-24T12:50:51.838Z,73.64
2024-01-24T12:52:54.940Z,74.00
2024-01-24T12:54:57.796Z,73.22
2024-01-24T12:57:00.644Z,72.93
2024-01-24T12:59:03.598Z,72.53
2024-01-24T13:01:06.551Z,72.69
2024-01-24T13:03:09.341Z,72.09
2024-01-24T13:05:12.415Z,71.26
2024-01-24T13:07:15.530Z,71.17
2024-01-24T13:09:18.849Z,72.42
2024-01-24T13:11:21.727Z,74.54
2024-01-24T13:13:24.663Z,74.93
2024-01-24T13:15:27.519Z,75.86
2024-01-24T13:17:30.366Z,75.68
2024-01-24T13:19:33.373Z,75.77
2024-01-24T13:21:40.431Z,74.68
2024-01-24T13:23:45.525Z,74.96
2024-01-24T13:25:48.433Z,75.06
2024-01-24T13:27:51.312Z,74.49
2024-01-24T13:29:54.565Z,74.75
2024-01-24T13:31:57.382Z,74.28
2024-01-24T13:34:00.319Z,74.53
2024-01-24T13:36:03.263Z,74.49
2024-01-24T13:38:06.043Z,74.60
2024-01-24T13:40:13.149Z,74.35
2024-01-24T13:42:16.693Z,74.16
2024-01-24T13:44:19.520Z,73.88
2024-01-24T13:46:22.369Z,73.24
2024-01-24T13:48:25.345Z,72.06
2024-01-24T13:50:28.219Z,71.85
2024-01-24T13:52:31.244Z,72.05
2024-01-24T13:54:34.044Z,71.70
2024-01-24T13:56:36.964Z,70.50
2024-01-24T13:58:39.816Z,71.46
2024-01-24T14:00:43.450Z,71.45
2024-01-24T14:02:46.893Z,71.76
2024-01-24T14:04:50.924Z,72.18
2024-01-24T14:06:54.483Z,70.93
2024-01-24T14:08:57.603Z,71.24
2024-01-24T14:11:00.744Z,70.15
2024-01-24T14:13:04.196Z,71.01
2024-01-24T14:15:15.412Z,70.25
2024-01-24T14:17:26.590Z,70.06
2024-01-24T14:19:29.529Z,70.69
2024-01-24T14:21:33.702Z,70.37
2024-01-24T14:23:36.545Z,70.19
2024-01-24T14:25:39.503Z,70.62
2024-01-24T14:27:44.221Z,71.11
2024-01-24T14:29:47.080Z,71.00
2024-01-24T14:31:49.800Z,71.43
2024-01-24T14:33:52.798Z,70.84
2024-01-24T14:35:55.616Z,71.01
2024-01-24T14:37:59.298Z,71.67
2024-01-24T14:40:02.352Z,70.83
2024-01-24T14:42:08.545Z,71.25
2024-01-24T14:44:11.509Z,70.89
2024-01-24T14:46:14.265Z,71.26
2024-01-24T14:48:17.082Z,71.10
2024-01-24T14:50:19.895Z,71.94
2024-01-24T14:52:22.709Z,71.78
2024-01-24T14:54:25.666Z,72.19
2024-01-24T14:56:28.441Z,71.34
2024-01-24T14:58:31.327Z,72.31
2024-01-24T15:00:34.201Z,72.14
2024-01-24T15:02:40.659Z,71.68
2024-01-24T15:04:43.590Z,72.65
2024-01-24T15:06:46.502Z,72.32
2024-01-24T15:08:49.277Z,72.54
2024-01-24T15:10:52.174Z,72.55
2024-01-24T15:12:55.145Z,72.75
2024-01-24T15:14:57.881Z,72.55
2024-01-24T15:17:00.785Z,73.12
2024-01-24T15:19:04.522Z,73.18
2024-01-24T15:21:11.507Z,73.10
2024-01-24T15:23:16.355Z,72.99
2024-01-24T15:25:19.902Z,73.40
2024-01-24T15:27:25.091Z,73.66
2024-01-24T15:29:29.193Z,74.45
2024-01-24T15:31:32.281Z,74.69
2024-01-24T15:33:35.586Z,75.43
2024-01-24T15:35:38.766Z,75.46
2024-01-24T15:37:42.850Z,75.77
2024-01-24T15:39:45.834Z,76.01
2024-01-24T15:41:48.690Z,76.06
2024-01-24T15:43:51.456Z,74.62
2024-01-24T15:45:54.748Z,74.26
2024-01-24T15:47:57.747Z,73.67
2024-01-24T15:50:00.991Z,72.80
2024-01-24T15:52:04.082Z,73.29
2024-01-24T15:54:06.923Z,73.10
2024-01-24T15:56:10.212Z,72.91
2024-01-24T15:58:13.018Z,73.08
2024-01-24T16:00:16.770Z,73.01
2024-01-24T16:02:19.585Z,73.43
2024-01-24T16:04:22.795Z,73.30
2024-01-24T16:06:26.116Z,73.30
2024-01-24T16:08:29.202Z,73.61
2024-01-24T16:10:32.284Z,74.32
2024-01-24T16:12:35.092Z,74.96
2024-01-24T16:14:37.903Z,74.77
2024-01-24T16:16:40.641Z,75.13
2024-01-24T16:18:44.550Z,75.10
2024-01-24T16:20:47.360Z,75.25
2024-01-24T16:22:55.512Z,75.40
2024-01-24T16:24:59.835Z,76.10
2024-01-24T16:27:02.579Z,77.49
2024-01-24T16:29:05.341Z,78.11
2024-01-24T16:31:08.153Z,79.86
2024-01-24T16:33:11.397Z,79.77
2024-01-24T16:35:15.217Z,79.50
2024-01-24T16:37:18.090Z,79.11
2024-01-24T16:39:20.885Z,79.63
2024-01-24T16:41:23.655Z,80.47
2024-01-24T16:43:37.954Z,80.55
2024-01-24T16:45:40.965Z,80.75
2024-01-24T16:47:46.138Z,80.87
2024-01-24T16:49:49.507Z,81.61
2024-01-24T16:51:52.494Z,81.71
2024-01-24T16:53:55.834Z,81.18
2024-01-24T16:55:58.712Z,81.67
2024-01-24T16:58:01.502Z,81.00
2024-01-24T17:00:05.585Z,80.95
2024-01-24T17:02:08.356Z,81.48
2024-01-24T17:04:11.239Z,82.52
2024-01-24T17:06:14.084Z,82.12
2024-01-24T17:08:16.881Z,80.79
2024-01-24T17:10:19.632Z,81.16
2024-01-24T17:12:23.136Z,80.60
2024-01-24T17:14:25.984Z,80.92
2024-01-24T17:16:28.736Z,82.08
2024-01-24T17:18:31.873Z,81.18
2024-01-24T17:20:34.753Z,81.65
2024-01-24T17:22:37.488Z,81.10
2024-01-24T17:24:40.254Z,79.37
2024-01-24T17:26:43.023Z,80.27
2024-01-24T17:28:45.968Z,80.32
2024-01-24T17:30:49.009Z,80.67
2024-01-24T17:32:52.047Z,80.26
2024-01-24T17:34:55.143Z,81.37
2024-01-24T17:36:57.972Z,80.58
2024-01-24T17:39:01.009Z,81.41
2024-01-24T17:41:04.800Z,81.62
2024-01-24T17:43:07.680Z,79.19
2024-01-24T17:45:11.113Z,80.00
2024-01-24T17:47:13.999Z,81.05
2024-01-24T17:49:17.315Z,79.92
2024-01-24T17:51:21.480Z,80.10
2024-01-24T17:53:24.275Z,81.18
2024-01-24T17:55:29.354Z,81.54
2024-01-24T17:57:33.410Z,80.92
2024-01-24T17:59:36.711Z,81.27
2024-01-24T18:01:40.202Z,81.44
2024-01-24T18:03:43.634Z,81.01
2024-01-24T18:05:47.051Z,80.42
2024-01-24T18:07:50.180Z,79.88
2024-01-24T18:09:56.496Z,79.94
2024-01-24T18:11:59.912Z,79.87
2024-01-24T18:14:03.141Z,79.74
2024-01-24T18:16:06.676Z,80.19
2024-01-24T18:18:11.365Z,79.91
2024-01-24T18:20:14.607Z,81.01
2024-01-24T18:22:17.601Z,81.95
2024-01-24T18:24:20.562Z,82.13
2024-01-24T18:26:23.627Z,82.83
2024-01-24T18:28:27.173Z,83.06
2024-01-24T18:30:31.154Z,83.09
2024-01-24T18:32:35.762Z,82.88
2024-01-24T18:34:39.710Z,83.50
2024-01-24T18:36:43.269Z,82.43
2024-01-24T18:38:47.079Z,82.65
2024-01-24T18:40:50.907Z,82.74
2024-01-24T18:42:54.555Z,82.57
2024-01-24T18:44:58.936Z,82.26
2024-01-24T18:47:02.409Z,82.71
2024-01-24T18:49:05.772Z,82.65
2024-01-24T18:51:10.915Z,82.80
2024-01-24T18:53:14.543Z,82.37
2024-01-24T18:55:19.038Z,82.21
2024-01-24T18:57:28.460Z,83.09
2024-01-24T18:59:32.779Z,83.20
2024-01-24T19:01:39.364Z,82.42
2024-01-24T19:03:43.433Z,83.38
2024-01-24T19:05:47.972Z,83.89
2024-01-24T19:07:52.723Z,83.70
2024-01-24T19:09:59.013Z,82.63
2024-01-24T19:12:02.668Z,82.64
2024-01-24T19:14:06.436Z,83.41
2024-01-24T19:16:10.053Z,83.45
2024-01-24T19:18:17.306Z,83.58
2024-01-24T19:20:22.533Z,84.00
2024-01-24T19:22:26.139Z,83.87
2024-01-24T19:24:29.687Z,83.37
2024-01-24T19:26:36.002Z,83.46
2024-01-24T19:28:40.300Z,83.77
2024-01-24T19:30:44.046Z,84.12
2024-01-24T19:32:48.929Z,83.96
2024-01-24T19:34:54.391Z,84.45
2024-01-24T19:36:58.263Z,85.39
2024-01-24T19:39:02.096Z,84.61
2024-01-24T19:41:06.116Z,85.20
2024-01-24T19:43:11.727Z,85.33
2024-01-24T19:45:15.704Z,84.88
2024-01-24T19:47:21.315Z,84.21
2024-01-24T19:49:25.903Z,84.13
2024-01-24T19:51:30.235Z,85.03
2024-01-24T19:53:34.953Z,84.63
2024-01-24T19:55:39.383Z,85.27
2024-01-24T19:57:43.375Z,85.55
2024-01-24T19:59:48.809Z,85.44
2024-01-24T20:01:53.392Z,86.60
2024-01-24T20:03:57.206Z,85.60
2024-01-24T20:06:04.272Z,86.48
2024-01-24T20:08:08.424Z,85.07
2024-01-24T20:10:12.585Z,85.75
2024-01-24T20:12:18.006Z,85.63
2024-01-24T20:14:22.773Z,85.93
2024-01-24T20:16:27.032Z,85.72
2024-01-24T20:18:31.253Z,85.93
2024-01-24T20:20:35.540Z,85.35
2024-01-24T20:22:39.457Z,85.88
2024-01-24T20:24:44.978Z,85.62
2024-01-24T20:26:49.877Z,86.48
2024-01-24T20:28:54.572Z,86.13
2024-01-24T20:30:58.723Z,86.09
2024-01-24T20:33:05.193Z,85.47
2024-01-24T20:35:10.260Z,86.30
2024-01-24T20:37:14.553Z,85.63
2024-01-24T20:39:20.056Z,85.60
2024-01-24T20:41:25.011Z,85.71
2024-01-24T20:43:29.933Z,85.93
2024-01-24T20:45:35.681Z,86.22
2024-01-24T20:47:39.878Z,87.49
2024-01-24T20:49:44.065Z,86.50
2024-01-24T20:51:50.438Z,86.27
2024-01-24T20:53:54.227Z,86.78
2024-01-24T20:55:58.137Z,86.38
2024-01-24T20:58:01.804Z,87.06
2024-01-24T21:00:08.379Z,87.15
2024-01-24T21:02:12.254Z,87.02
2024-01-24T21:04:16.405Z,87.54
2024-01-24T21:06:23.742Z,87.93
2024-01-24T21:08:27.378Z,87.90
2024-01-24T21:10:30.767Z,87.41
2024-01-24T21:12:34.035Z,86.94
2024-01-24T21:14:37.408Z,87.14
2024-01-24T21:16:40.610Z,87.13
2024-01-24T21:18:45.073Z,87.06
2024-01-24T21:20:48.165Z,87.57
2024-01-24T21:22:51.168Z,86.96
2024-01-24T21:24:54.481Z,86.66
2024-01-24T21:26:57.387Z,86.56
2024-01-24T21:29:00.194Z,86.12
2024-01-24T21:31:03.068Z,85.85
2024-01-24T21:33:05.907Z,85.15
2024-01-24T21:35:10.440Z,84.44
2024-01-24T21:37:13.289Z,84.71
2024-01-24T21:39:16.080Z,84.05
2024-01-24T21:41:18.821Z,83.62
2024-01-24T21:43:22.781Z,83.19
2024-01-24T21:45:25.511Z,83.26
2024-01-24T21:47:28.574Z,82.96
2024-01-24T21:49:32.461Z,82.61
2024-01-24T21:51:35.231Z,82.31
2024-01-24T21:53:37.962Z,82.01
2024-01-24T21:55:40.795Z,81.78
2024-01-24T21:57:50.022Z,81.11
2024-01-24T21:59:54.088Z,80.59
2024-01-24T22:01:57.401Z,80.14
2024-01-24T22:04:00.451Z,79.27
2024-01-24T22:06:03.407Z,78.75
2024-01-24T22:08:07.958Z,78.51
2024-01-24T22:10:10.762Z,78.29
2024-01-24T22:12:13.909Z,77.88
2024-01-24T22:14:16.649Z,77.24
2024-01-24T22:16:19.536Z,77.98
2024-01-24T22:18:25.273Z,77.44
2024-01-24T22:20:32.849Z,76.85
2024-01-24T22:22:36.590Z,76.49
2024-01-24T22:24:39.551Z,76.18
2024-01-24T22:26:42.662Z,76.72
2024-01-24T22:28:45.406Z,76.20
2024-01-24T22:30:48.977Z,75.58
2024-01-24T22:32:51.749Z,75.76
2024-01-24T22:34:54.635Z,75.53
2024-01-24T22:36:57.439Z,75.26
2024-01-24T22:39:00.251Z,74.84
2024-01-24T22:41:02.957Z,74.77
2024-01-24T22:43:05.728Z,74.68
2024-01-24T22:45:08.818Z,74.48
2024-01-24T22:47:11.525Z,74.16
2024-01-24T22:49:14.595Z,73.99
2024-01-24T22:51:17.378Z,73.11
2024-01-24T22:53:20.114Z,73.19
2024-01-24T22:55:22.993Z,72.52
2024-01-24T22:57:25.776Z,72.81
2024-01-24T22:59:28.495Z,73.10
2024-01-24T23:01:32.087Z,71.63
2024-01-24T23:03:34.953Z,71.52
2024-01-24T23:05:37.834Z,71.96
2024-01-24T23:07:41.754Z,71.13
2024-01-24T23:09:44.620Z,71.16
2024-01-24T23:11:47.416Z,71.38
2024-01-24T23:13:50.126Z,71.50
2024-01-24T23:15:53.349Z,71.07
2024-01-24T23:17:56.143Z,71.53
2024-01-24T23:19:59.088Z,71.82
2024-01-24T23:22:01.960Z,72.66
2024-01-24T23:24:05.072Z,72.10
2024-01-24T23:26:07.814Z,72.42
2024-01-24T23:28:10.535Z,72.79
2024-01-24T23:30:13.574Z,72.89
2024-01-24T23:32:16.765Z,73.04
2024-01-24T23:34:19.661Z,73.29
2024-01-24T23:36:22.469Z,73.26
2024-01-24T23:38:25.356Z,73.35
2024-01-24T23:40:28.227Z,73.29
2024-01-24T23:42:31.056Z,73.35
2024-01-24T23:44:35.506Z,74.04
2024-01-24T23:46:38.492Z,73.74
2024-01-24T23:48:41.361Z,73.72
2024-01-24T23:50:44.624Z,74.41
2024-01-24T23:52:47.570Z,73.51
2024-01-24T23:54:50.351Z,73.60
2024-01-24T23:56:53.092Z,72.71
2024-01-24T23:58:55.815Z,72.14
